Time;durP1;ratioP1;P1;durP2;ratioP2;P2;SDS_P1;SDS_P2;PMS_P1;PMS_P2;Temp;Humidity;BMP_temperature;BMP_pressure;BME280_temperature;BME280_humidity;BME280_pressure;Samples;Min_cycle;Max_cycle;Signal;HPM_P1;HPM_P2
2021/03/04 00:01:09;;;;;;;78.40;37.80;;;;;;;5.23;61.65;99219.56;2200459;81;21159;-78
2021/03/04 00:04:10;;;;;;;74.23;35.40;;;;;;;5.22;61.73;99217.80;2118786;83;21169;-77
2021/03/04 00:07:11;;;;;;;78.37;37.23;;;;;;;5.20;61.97;99206.88;2200276;81;21151;-77
2021/03/04 00:10:13;;;;;;;70.10;35.23;;;;;;;5.12;61.92;99203.59;2118752;83;21225;-77
2021/03/04 00:13:14;;;;;;;75.10;35.03;;;;;;;5.07;62.00;99201.64;2200246;81;21420;-78
2021/03/04 00:16:17;;;;;;;75.83;36.43;;;;;;;5.02;62.05;99199.28;2118829;83;21114;-77
2021/03/04 00:19:18;;;;;;;72.70;37.57;;;;;;;4.97;62.07;99199.52;2200487;81;21138;-77
2021/03/04 00:22:19;;;;;;;74.00;38.10;;;;;;;4.93;62.25;99189.88;2123600;79;21214;-77
2021/03/04 00:25:20;;;;;;;67.17;35.20;;;;;;;4.91;62.55;99188.52;2200948;81;21256;-78
2021/03/04 00:28:21;;;;;;;78.90;37.10;;;;;;;4.89;62.61;99181.11;2143984;83;21182;-78
2021/03/04 00:31:22;;;;;;;74.03;35.93;;;;;;;4.84;62.65;99180.05;2200766;81;21245;-77
2021/03/04 00:34:23;;;;;;;61.37;33.17;;;;;;;4.77;62.78;99177.63;2144184;83;21106;-77
2021/03/04 00:37:24;;;;;;;62.67;33.23;;;;;;;4.69;62.86;99175.14;2200969;81;21281;-78
2021/03/04 00:40:28;;;;;;;58.43;31.17;;;;;;;4.65;63.07;99178.84;2144252;83;21118;-77
2021/03/04 00:43:30;;;;;;;67.00;33.00;;;;;;;4.58;63.09;99167.78;2201045;81;21254;-77
2021/03/04 00:46:34;;;;;;;57.80;31.67;;;;;;;4.51;63.31;99165.77;2144253;83;21167;-77
2021/03/04 00:49:36;;;;;;;58.95;30.02;;;;;;;4.46;63.39;99153.53;2201136;81;21284;-76
2021/03/04 00:52:37;;;;;;;54.13;29.63;;;;;;;4.41;63.49;99147.70;2144185;83;21181;-77
2021/03/04 00:55:38;;;;;;;57.57;31.50;;;;;;;4.34;63.64;99140.52;2200899;81;21285;-78
2021/03/04 00:58:40;;;;;;;58.50;32.03;;;;;;;4.30;63.77;99140.77;2143998;83;21178;-78
2021/03/04 01:01:41;;;;;;;54.53;30.70;;;;;;;4.25;63.87;99130.66;2201022;81;21559;-77
2021/03/04 01:04:45;;;;;;;57.37;32.33;;;;;;;4.18;63.99;99127.35;2144288;83;21404;-77
2021/03/04 01:07:46;;;;;;;68.97;34.07;;;;;;;4.09;64.05;99126.97;2200944;81;21162;-77
2021/03/04 01:10:51;;;;;;;61.17;31.83;;;;;;;4.05;64.25;99117.33;2144219;83;21463;-77
2021/03/04 01:13:53;;;;;;;67.17;34.97;;;;;;;3.98;64.39;99123.05;2200503;81;21245;-77
2021/03/04 01:16:54;;;;;;;62.57;33.13;;;;;;;3.89;64.46;99127.42;2144163;83;21173;-77
2021/03/04 01:19:55;;;;;;;63.40;33.50;;;;;;;3.86;64.85;99122.13;2200489;81;21265;-77
2021/03/04 01:22:56;;;;;;;62.33;34.33;;;;;;;3.83;64.82;99117.72;2144017;83;21158;-77
2021/03/04 01:25:57;;;;;;;66.00;34.97;;;;;;;3.77;64.90;99112.30;2200733;81;21237;-77
2021/03/04 01:28:58;;;;;;;63.80;34.43;;;;;;;3.73;65.40;99107.81;2143815;83;21170;-77
2021/03/04 01:31:59;;;;;;;72.67;34.00;;;;;;;3.73;65.38;99103.94;2201066;81;21249;-78
2021/03/04 01:35:00;;;;;;;81.60;35.17;;;;;;;3.69;65.21;99094.30;2143205;83;21157;-77
2021/03/04 01:38:01;;;;;;;63.80;35.13;;;;;;;3.64;65.44;99097.09;2200678;81;21290;-77
2021/03/04 01:41:02;;;;;;;60.57;33.87;;;;;;;3.60;65.55;99081.00;2144457;83;21161;-78
2021/03/04 01:44:06;;;;;;;61.10;33.63;;;;;;;3.53;65.40;99083.25;2200911;81;21146;-78
2021/03/04 01:47:07;;;;;;;73.67;35.00;;;;;;;3.43;65.57;99082.82;2144277;83;21138;-79
2021/03/04 01:50:09;;;;;;;67.03;34.27;;;;;;;3.36;65.82;99076.03;2201139;81;21166;-78
2021/03/04 01:53:10;;;;;;;70.67;34.67;;;;;;;3.32;65.98;99072.84;2144282;83;21166;-78
2021/03/04 01:56:11;;;;;;;69.77;35.53;;;;;;;3.29;66.61;99059.81;2200896;81;21245;-77
2021/03/04 01:59:12;;;;;;;66.97;35.73;;;;;;;3.28;66.76;99061.92;2143865;83;21114;-77
2021/03/04 02:02:13;;;;;;;71.67;38.70;;;;;;;3.31;66.93;99058.19;2201106;81;21254;-77
2021/03/04 02:05:14;;;;;;;69.20;38.97;;;;;;;3.31;67.08;99060.36;2143936;83;21154;-77
2021/03/04 02:08:15;;;;;;;73.90;38.00;;;;;;;3.36;67.28;99048.53;2200768;81;21281;-77
2021/03/04 02:11:19;;;;;;;75.33;39.17;;;;;;;3.42;67.69;99047.51;2144263;83;21149;-77
2021/03/04 02:14:20;;;;;;;70.77;36.57;;;;;;;3.47;67.83;99032.26;2200192;81;21143;-77
2021/03/04 02:17:22;;;;;;;75.30;39.30;;;;;;;3.55;67.75;99033.87;2143538;83;21276;-77
2021/03/04 02:20:23;;;;;;;67.27;38.40;;;;;;;3.61;67.81;99027.27;2200885;81;21250;-77
2021/03/04 02:23:24;;;;;;;66.73;35.73;;;;;;;3.68;67.85;99033.56;2133396;78;21211;-77
2021/03/04 02:26:25;;;;;;;74.50;40.07;;;;;;;3.74;68.10;99027.37;2114700;84;21135;-76
2021/03/04 02:29:26;;;;;;;79.03;41.07;;;;;;;3.80;68.21;99028.50;2115087;84;21317;-77
2021/03/04 02:32:27;;;;;;;72.27;39.40;;;;;;;3.87;68.12;99019.72;2090090;85;21543;-76
2021/03/04 02:35:28;;;;;;;70.57;38.90;;;;;;;3.94;67.96;99004.53;2125751;83;21155;-79
2021/03/04 02:38:29;;;;;;;69.07;38.93;;;;;;;3.99;67.81;98993.09;2115136;84;21140;-78
2021/03/04 02:41:30;;;;;;;68.17;35.87;;;;;;;4.01;67.79;98998.80;2090084;84;21278;-77
2021/03/04 02:44:34;;;;;;;75.43;39.43;;;;;;;4.03;67.97;98985.94;2125329;83;21556;-78
2021/03/04 02:47:35;;;;;;;68.37;37.07;;;;;;;4.04;67.96;98982.13;2115632;84;21151;-78
2021/03/04 02:50:36;;;;;;;74.83;39.67;;;;;;;4.05;67.92;98970.97;2090169;85;21211;-77
2021/03/04 02:53:37;;;;;;;79.13;40.93;;;;;;;4.04;67.83;98977.37;2125227;83;21262;-77
2021/03/04 02:56:39;;;;;;;78.83;42.37;;;;;;;4.02;67.89;98968.67;2114215;84;21112;-78
2021/03/04 02:59:40;;;;;;;72.67;40.47;;;;;;;4.02;68.07;98957.05;2088887;85;21269;-77
2021/03/04 03:02:41;;;;;;;82.13;40.93;;;;;;;4.00;68.03;98955.70;2124459;83;21155;-77
2021/03/04 03:05:42;;;;;;;126.27;43.23;;;;;;;4.02;68.07;98957.05;2114817;84;21560;-78
2021/03/04 03:08:43;;;;;;;76.53;40.87;;;;;;;4.01;68.06;98956.58;2089145;85;21473;-77
2021/03/04 03:11:44;;;;;;;82.27;42.40;;;;;;;4.01;68.12;98949.72;2125204;83;21164;-76
2021/03/04 03:14:45;;;;;;;87.50;43.47;;;;;;;3.99;68.13;98944.02;2114882;84;21278;-76
2021/03/04 03:17:47;;;;;;;75.60;39.83;;;;;;;3.98;68.06;98945.72;2090771;85;21264;-77
2021/03/04 03:20:50;;;;;;;191.20;48.87;;;;;;;5.67;70.19;98954.48;2125759;83;21282;-79
2021/03/04 03:23:51;;;;;;;91.73;44.83;;;;;;;5.58;66.26;98950.30;2122373;83;21166;-79
2021/03/04 03:26:52;;;;;;;83.97;45.57;;;;;;;5.17;65.81;98951.45;2135823;83;21162;-80
2021/03/04 03:29:54;;;;;;;80.47;44.50;;;;;;;4.86;65.83;98949.49;2135421;83;21194;-77
2021/03/04 03:32:55;;;;;;;78.70;44.20;;;;;;;4.59;66.25;98944.20;2135121;83;21123;-78
2021/03/04 03:35:56;;;;;;;84.43;46.50;;;;;;;4.39;66.44;98936.13;2134555;83;21433;-78
2021/03/04 03:38:57;;;;;;;89.83;47.17;;;;;;;4.23;66.71;98947.55;2134591;83;21123;-78
2021/03/04 03:41:58;;;;;;;82.77;43.53;;;;;;;4.11;66.97;98932.88;2134589;83;21178;-78
2021/03/04 03:44:59;;;;;;;96.50;49.33;;;;;;;4.01;67.23;98943.67;2135165;83;21103;-79
2021/03/04 03:48:00;;;;;;;83.23;45.50;;;;;;;3.93;67.30;98934.33;2134998;83;21123;-78
2021/03/04 03:51:04;;;;;;;112.53;50.33;;;;;;;3.86;67.47;98932.33;2135440;83;21163;-80
2021/03/04 03:54:05;;;;;;;;;;;;;;;3.80;67.65;98930.38;2138091;83;21166;-80
2021/03/04 03:57:06;;;;;;;100.30;49.30;;;;;;;3.73;67.98;98931.38;2135263;83;20176;-78
2021/03/04 04:00:07;;;;;;;90.47;49.20;;;;;;;3.65;67.90;98923.73;2135035;83;21159;-79
2021/03/04 04:03:08;;;;;;;82.07;44.77;;;;;;;3.61;68.01;98929.59;2135641;83;21170;-80
2021/03/04 04:06:10;;;;;;;83.73;42.10;;;;;;;3.59;70.15;98925.66;2135776;83;21292;-80
2021/03/04 04:09:11;;;;;;;88.30;47.03;;;;;;;5.71;68.62;98916.61;2135506;83;21202;-78
2021/03/04 04:12:12;;;;;;;87.57;49.03;;;;;;;5.34;65.67;98914.53;2135798;83;21163;-79
2021/03/04 04:15:13;;;;;;;95.93;48.63;;;;;;;4.91;65.41;98915.62;2135865;83;21540;-78
2021/03/04 04:18:14;;;;;;;87.50;47.80;;;;;;;4.56;65.61;98911.78;2135605;83;21162;-78
2021/03/04 04:21:15;;;;;;;84.17;43.27;;;;;;;4.33;65.84;98908.73;2135859;83;21182;-80
2021/03/04 04:24:16;;;;;;;85.10;46.00;;;;;;;4.15;66.20;98902.45;2127529;83;21179;-79
2021/03/04 04:27:17;;;;;;;87.33;45.70;;;;;;;4.02;66.38;98900.23;2112846;84;21232;-79
2021/03/04 04:30:18;;;;;;;74.27;37.20;;;;;;;3.91;66.50;98901.52;2112504;84;21183;-80
2021/03/04 04:33:19;;;;;;;82.77;43.87;;;;;;;3.82;67.06;98902.05;2086647;85;21138;-78
2021/03/04 04:36:20;;;;;;;82.00;45.00;;;;;;;3.78;66.87;98902.33;2121275;84;21134;-79
2021/03/04 04:39:21;;;;;;;87.30;46.20;;;;;;;3.74;67.06;98899.16;2114286;84;21148;-81
2021/03/04 04:42:22;;;;;;;88.93;44.37;;;;;;;3.73;67.06;98890.06;2120147;83;21118;-78
2021/03/04 04:45:23;;;;;;;79.27;42.33;;;;;;;3.71;66.98;98888.71;2113258;84;21679;-78
2021/03/04 04:48:24;;;;;;;80.90;43.17;;;;;;;3.72;67.09;98881.84;2119345;83;21154;-77
2021/03/04 04:51:25;;;;;;;86.57;43.63;;;;;;;3.70;67.02;98883.08;2112389;84;21259;-77
2021/03/04 04:54:26;;;;;;;82.13;43.40;;;;;;;3.69;67.04;98876.56;2117985;83;21131;-78
2021/03/04 04:57:27;;;;;;;86.27;44.80;;;;;;;3.65;66.96;98865.23;2111643;84;21576;-79
2021/03/04 05:00:29;;;;;;;72.73;35.97;;;;;;;3.61;66.98;98862.06;2119434;83;21154;-80
2021/03/04 05:03:30;;;;;;;78.63;41.90;;;;;;;3.60;67.16;98860.30;2111307;84;21278;-79
2021/03/04 05:06:31;;;;;;;83.80;42.27;;;;;;;3.61;66.96;98856.91;2118110;83;21273;-78
2021/03/04 05:09:32;;;;;;;83.70;43.17;;;;;;;3.60;66.95;98853.85;2111199;84;21361;-77
2021/03/04 05:12:33;;;;;;;81.97;40.87;;;;;;;3.62;66.94;98848.75;2118462;83;21265;-79
2021/03/04 05:15:34;;;;;;;74.90;39.87;;;;;;;3.62;66.88;98835.44;2111927;84;21290;-78
2021/03/04 05:18:35;;;;;;;78.17;39.63;;;;;;;3.62;66.88;98838.02;2119014;83;21142;-79
2021/03/04 05:21:36;;;;;;;75.00;40.67;;;;;;;3.62;66.85;98836.73;2112229;84;21131;-79
2021/03/04 05:24:37;;;;;;;73.50;39.53;;;;;;;3.63;66.71;98832.03;2093018;84;21289;-79
2021/03/04 05:27:38;;;;;;;74.07;38.90;;;;;;;3.68;66.64;98832.21;2133083;82;21305;-79
2021/03/04 05:30:39;;;;;;;75.77;37.80;;;;;;;3.71;66.55;98836.20;2190589;80;21285;-78
2021/03/04 05:33:41;;;;;;;69.70;34.90;;;;;;;3.75;66.67;98824.76;2189755;80;21265;-79
2021/03/04 05:36:43;;;;;;;69.50;37.10;;;;;;;3.81;66.51;98812.49;2190094;80;21257;-78
2021/03/04 05:39:44;;;;;;;83.50;39.23;;;;;;;3.87;66.33;98817.01;2189151;80;21424;-79
2021/03/04 05:42:46;;;;;;;77.23;39.53;;;;;;;3.93;66.24;98806.91;2189069;80;21293;-77
2021/03/04 05:45:47;;;;;;;78.80;36.83;;;;;;;3.99;66.24;98809.72;2188298;80;21599;-78
2021/03/04 05:48:48;;;;;;;72.20;38.57;;;;;;;4.07;66.08;98814.34;2188670;80;21171;-78
2021/03/04 05:51:49;;;;;;;74.80;38.73;;;;;;;4.19;66.01;98813.03;2189703;80;21262;-77
2021/03/04 05:54:50;;;;;;;81.73;41.07;;;;;;;4.32;65.79;98812.64;2188427;81;21143;-77
2021/03/04 05:57:51;;;;;;;76.03;37.73;;;;;;;4.42;65.72;98818.23;2188573;80;21594;-78
2021/03/04 06:00:52;;;;;;;76.17;38.93;;;;;;;4.57;65.48;98816.59;2188443;80;21115;-79
2021/03/04 06:03:53;;;;;;;83.83;40.70;;;;;;;4.67;65.30;98805.74;2188685;80;21154;-78
2021/03/04 06:06:54;;;;;;;68.13;34.87;;;;;;;4.80;65.16;98810.91;2189711;80;21246;-78
2021/03/04 06:09:55;;;;;;;70.77;35.60;;;;;;;4.92;64.80;98803.56;2189228;80;21598;-78
2021/03/04 06:12:57;;;;;;;74.73;39.10;;;;;;;5.01;64.68;98803.87;2190076;80;21331;-78
2021/03/04 06:15:58;;;;;;;65.23;35.17;;;;;;;5.09;64.51;98802.83;2190015;80;21264;-78
2021/03/04 06:18:59;;;;;;;65.07;35.10;;;;;;;5.17;64.41;98796.61;2096550;83;21139;-78
2021/03/04 06:22:00;;;;;;;63.60;31.87;;;;;;;5.22;64.26;98802.43;2189784;80;21091;-78
2021/03/04 06:25:01;;;;;;;69.00;34.93;;;;;;;5.28;64.04;98795.28;2183647;80;21301;-78
2021/03/04 06:28:04;;;;;;;69.97;36.30;;;;;;;5.36;64.05;98802.45;2084793;84;21786;-78
2021/03/04 06:31:05;;;;;;;76.83;38.20;;;;;;;5.43;63.96;98819.05;2176621;81;21306;-78
2021/03/04 06:34:06;;;;;;;81.77;42.23;;;;;;;5.48;63.97;98834.73;2176218;81;21225;-78
2021/03/04 06:37:07;;;;;;;90.23;36.93;;;;;;;5.56;64.03;98821.61;2177499;81;21135;-79
2021/03/04 06:40:08;;;;;;;75.87;40.73;;;;;;;5.94;74.08;98824.98;2178412;82;21107;-78
2021/03/04 06:43:09;;;;;;;80.37;45.93;;;;;;;7.22;62.37;98813.38;2177626;81;21269;-77
2021/03/04 06:46:11;;;;;;;70.83;36.80;;;;;;;6.96;61.42;98809.72;2178110;81;21143;-78
2021/03/04 06:49:12;;;;;;;71.47;35.73;;;;;;;6.76;60.55;98826.87;2179109;81;21912;-77
2021/03/04 06:52:13;;;;;;;74.43;38.67;;;;;;;6.55;61.22;98831.06;2178959;81;21273;-77
2021/03/04 06:55:14;;;;;;;69.83;38.83;;;;;;;6.38;61.23;98833.19;2178434;81;21469;-77
2021/03/04 06:58:15;;;;;;;97.27;38.13;;;;;;;6.27;61.84;98848.44;2178497;81;21132;-77
2021/03/04 07:01:17;;;;;;;83.13;41.70;;;;;;;6.18;62.11;98848.59;2179257;81;21254;-77
2021/03/04 07:04:18;;;;;;;75.47;43.70;;;;;;;6.14;62.45;98845.45;2177592;81;21120;-76
2021/03/04 07:07:22;;;;;;;83.70;46.27;;;;;;;6.13;62.67;98843.28;2083374;84;21270;-77
2021/03/04 07:10:24;;;;;;;81.83;47.40;;;;;;;6.11;62.89;98845.36;2175537;82;21857;-77
2021/03/04 07:13:25;;;;;;;77.63;43.10;;;;;;;6.18;62.99;98849.47;2176365;82;21144;-78
2021/03/04 07:16:26;;;;;;;83.50;46.23;;;;;;;6.27;62.92;98831.59;2176070;81;21116;-77
2021/03/04 07:19:28;;;;;;;68.07;39.43;;;;;;;6.30;62.85;98839.45;2175924;81;21262;-77
2021/03/04 07:22:29;;;;;;;73.63;44.73;;;;;;;6.41;62.70;98832.39;2085070;84;21635;-78
2021/03/04 07:25:31;;;;;;;76.13;43.83;;;;;;;6.47;62.86;98832.56;2177802;81;21151;-78
2021/03/04 07:28:33;;;;;;;75.63;42.07;;;;;;;6.47;62.56;98823.08;2086432;84;21297;-78
2021/03/04 07:31:34;;;;;;;88.03;48.80;;;;;;;6.44;62.92;98822.98;2111601;84;21300;-78
2021/03/04 07:34:35;;;;;;;79.60;42.10;;;;;;;6.49;63.19;98828.30;2085983;84;21143;-77
2021/03/04 07:37:36;;;;;;;90.50;50.60;;;;;;;6.56;63.13;98832.40;2120803;83;21146;-79
2021/03/04 07:40:37;;;;;;;86.77;46.53;;;;;;;6.61;63.14;98828.63;2110905;84;21262;-77
2021/03/04 07:43:38;;;;;;;85.37;47.17;;;;;;;6.68;62.86;98830.56;2085937;84;21894;-78
2021/03/04 07:46:39;;;;;;;80.70;44.27;;;;;;;6.76;62.70;98827.75;2121042;83;21261;-77
2021/03/04 07:49:41;;;;;;;90.17;47.23;;;;;;;6.81;62.76;98821.38;2111779;84;21180;-78
2021/03/04 07:52:42;;;;;;;85.80;48.00;;;;;;;6.80;62.72;98828.29;2085843;84;21588;-77
2021/03/04 07:55:44;;;;;;;91.63;49.53;;;;;;;6.77;62.91;98821.72;2121278;83;21515;-77
2021/03/04 07:58:45;;;;;;;85.87;47.97;;;;;;;6.86;62.90;98824.56;2110686;84;21278;-77
2021/03/04 08:01:46;;;;;;;83.70;47.97;;;;;;;6.96;62.81;98821.81;2084701;85;21324;-77
2021/03/04 08:04:47;;;;;;;99.83;52.13;;;;;;;6.92;62.91;98826.44;2120773;83;21343;-80
2021/03/04 08:07:48;;;;;;;91.43;51.43;;;;;;;6.93;63.10;98825.17;2112099;84;21107;-77
2021/03/04 08:10:53;;;;;;;95.83;53.23;;;;;;;6.90;63.35;98818.61;2086251;85;21310;-78
2021/03/04 08:13:53;;;;;;;85.77;47.40;;;;;;;6.89;63.50;98816.85;2122146;83;21290;-78
2021/03/04 08:16:54;;;;;;;93.80;52.77;;;;;;;6.91;63.78;98826.85;2111766;84;21791;-77
2021/03/04 08:19:55;;;;;;;100.70;52.60;;;;;;;6.89;63.96;98819.87;2086837;85;21300;-80
2021/03/04 08:22:57;;;;;;;93.73;49.80;;;;;;;6.97;63.96;98831.36;2121647;83;21657;-81
2021/03/04 08:25:58;;;;;;;105.10;57.43;;;;;;;7.05;63.90;98824.64;2112178;84;21195;-77
2021/03/04 08:28:59;;;;;;;100.70;50.97;;;;;;;7.07;63.98;98831.17;2092968;84;21608;-80
2021/03/04 08:32:00;;;;;;;101.07;54.57;;;;;;;7.00;64.20;98835.33;2126880;82;21281;-77
2021/03/04 08:35:01;;;;;;;95.83;55.07;;;;;;;6.94;64.37;98825.67;2188671;81;21472;-76
2021/03/04 08:38:02;;;;;;;94.27;49.77;;;;;;;6.90;64.75;98823.80;2103953;84;21316;-76
2021/03/04 08:41:04;;;;;;;107.17;60.73;;;;;;;6.85;64.70;98829.70;2111074;84;21293;-77
2021/03/04 08:44:05;;;;;;;102.53;57.97;;;;;;;6.84;64.84;98831.84;2090827;84;21114;-78
2021/03/04 08:47:06;;;;;;;109.40;57.50;;;;;;;6.87;64.72;98817.66;2138490;82;21137;-77
2021/03/04 08:50:07;;;;;;;109.20;59.63;;;;;;;6.87;64.83;98814.64;2111279;84;22032;-78
2021/03/04 08:53:08;;;;;;;104.00;59.03;;;;;;;6.87;64.95;98813.34;2085842;85;21148;-78
2021/03/04 08:56:10;;;;;;;101.20;54.77;;;;;;;6.90;64.86;98802.16;2120206;83;21167;-77
2021/03/04 08:59:11;;;;;;;106.47;61.57;;;;;;;7.03;64.74;98801.66;2112465;84;21277;-78
2021/03/04 09:02:14;;;;;;;105.10;58.60;;;;;;;6.97;64.65;98803.69;2086620;84;21327;-80
2021/03/04 09:05:15;;;;;;;110.80;62.30;;;;;;;6.97;64.70;98798.92;2138847;83;21276;-78
2021/03/04 09:08:16;;;;;;;105.57;59.30;;;;;;;7.00;64.77;98792.08;2112088;84;21148;-79
2021/03/04 09:11:17;;;;;;;102.47;55.77;;;;;;;7.02;64.66;98789.53;2087155;84;21325;-78
2021/03/04 09:14:18;;;;;;;108.87;60.90;;;;;;;7.12;64.65;98786.73;2132053;82;21290;-78
2021/03/04 09:17:19;;;;;;;107.53;63.93;;;;;;;7.24;64.49;98790.51;2175059;81;21441;-78
2021/03/04 09:20:20;;;;;;;118.63;70.63;;;;;;;7.67;63.63;98785.88;2177995;81;21919;-78
2021/03/04 09:23:21;;;;;;;100.07;56.03;;;;;;;7.67;63.63;98785.88;2177562;82;21425;-79
2021/03/04 09:26:22;;;;;;;114.83;71.87;;;;;;;7.84;63.15;98782.81;2177301;81;21619;-78
2021/03/04 09:29:23;;;;;;;122.93;65.33;;;;;;;7.92;63.07;98773.45;2085173;84;21624;-78
2021/03/04 09:32:24;;;;;;;96.77;59.00;;;;;;;8.09;62.65;98777.70;2110027;84;21488;-77
2021/03/04 09:35:25;;;;;;;105.63;59.47;;;;;;;8.33;62.34;98769.52;2084712;84;21612;-77
2021/03/04 09:38:26;;;;;;;114.17;66.13;;;;;;;8.49;61.61;98772.89;2120421;83;21142;-77
2021/03/04 09:41:28;;;;;;;106.20;66.63;;;;;;;8.60;61.33;98763.14;2111114;84;21572;-78
2021/03/04 09:44:29;;;;;;;120.87;75.33;;;;;;;8.81;60.74;98763.98;2086207;84;22002;-78
2021/03/04 09:47:31;;;;;;;97.30;59.43;;;;;;;8.95;60.78;98766.81;2121155;83;21167;-78
2021/03/04 09:50:32;;;;;;;98.53;61.47;;;;;;;8.99;59.51;98763.84;2178227;81;21900;-79
2021/03/04 09:53:33;;;;;;;106.47;63.47;;;;;;;8.93;59.75;98762.01;2086447;84;21278;-78
2021/03/04 09:56:34;;;;;;;95.43;55.43;;;;;;;9.00;59.32;98762.56;2178304;81;21131;-78
2021/03/04 09:59:35;;;;;;;105.73;65.23;;;;;;;9.09;59.53;98756.63;2087149;84;21273;-77
2021/03/04 10:02:36;;;;;;;119.43;70.97;;;;;;;9.01;59.02;98765.62;2178519;81;21162;-78
2021/03/04 10:05:37;;;;;;;116.00;68.47;;;;;;;9.11;59.94;98758.41;2087073;84;21167;-79
2021/03/04 10:08:38;;;;;;;124.37;72.07;;;;;;;9.11;59.73;98761.02;2179875;81;21253;-78
2021/03/04 10:11:41;;;;;;;112.37;64.20;;;;;;;8.94;59.39;98768.55;2087195;84;21575;-78
2021/03/04 10:14:42;;;;;;;104.83;59.63;;;;;;;8.89;59.32;98768.02;2179138;81;21246;-79
2021/03/04 10:17:43;;;;;;;116.13;72.00;;;;;;;9.05;59.29;98769.15;2087275;84;21294;-78
2021/03/04 10:20:45;;;;;;;105.57;62.23;;;;;;;9.14;59.54;98768.00;2111247;84;21152;-78
2021/03/04 10:23:46;;;;;;;98.57;61.03;;;;;;;9.26;58.65;98766.89;2085961;84;21143;-78
2021/03/04 10:26:47;;;;;;;108.07;67.77;;;;;;;9.29;58.20;98764.33;2132556;83;21314;-78
2021/03/04 10:29:48;;;;;;;105.73;68.00;;;;;;;9.30;58.28;98768.69;2188876;80;21160;-78
2021/03/04 10:32:49;;;;;;;117.63;77.47;;;;;;;9.24;57.99;98765.98;2188495;80;21254;-77
2021/03/04 10:35:50;;;;;;;107.90;66.27;;;;;;;9.28;58.73;98766.48;2188439;81;21273;-78
2021/03/04 10:38:51;;;;;;;110.13;66.00;;;;;;;9.38;58.07;98767.08;2189475;81;21425;-77
2021/03/04 10:41:53;;;;;;;96.47;62.90;;;;;;;9.52;57.89;98755.12;2095770;83;21572;-77
2021/03/04 10:44:54;;;;;;;134.50;61.00;;;;;;;9.75;56.57;98748.97;2188118;80;21123;-77
2021/03/04 10:47:55;;;;;;;91.00;57.40;;;;;;;9.83;56.19;98753.86;2186076;80;21288;-77
2021/03/04 10:50:56;;;;;;;88.27;56.77;;;;;;;9.94;54.93;98755.30;2186402;80;22059;-79
2021/03/04 10:53:57;;;;;;;103.10;60.20;;;;;;;10.09;54.63;98746.36;2188575;80;21460;-77
2021/03/04 10:56:58;;;;;;;96.83;62.90;;;;;;;10.10;54.48;98743.33;2189991;80;21874;-79
2021/03/04 10:59:59;;;;;;;101.60;63.40;;;;;;;10.00;55.42;98744.07;2189554;80;21131;-79
2021/03/04 11:03:00;;;;;;;97.77;59.87;;;;;;;9.83;54.46;98749.07;2189297;80;21162;-80
2021/03/04 11:06:01;;;;;;;87.17;59.80;;;;;;;9.80;55.00;98735.57;2189609;80;21285;-80
2021/03/04 11:09:02;;;;;;;89.97;57.83;;;;;;;9.96;55.01;98737.07;2190016;80;21297;-80
2021/03/04 11:12:03;;;;;;;92.67;58.83;;;;;;;10.27;54.82;98723.98;2189120;80;21249;-79
2021/03/04 11:15:04;;;;;;;98.20;60.93;;;;;;;10.72;54.47;98718.39;2096380;85;21269;-79
2021/03/04 11:18:07;;;;;;;91.53;56.70;;;;;;;10.98;53.22;98711.66;2190848;80;21154;-78
2021/03/04 11:21:08;;;;;;;84.90;52.60;;;;;;;11.12;53.12;98706.54;2096069;83;21115;-78
2021/03/04 11:24:09;;;;;;;73.75;47.58;;;;;;;11.15;51.09;98698.30;2188990;80;21135;-77
2021/03/04 11:27:10;;;;;;;73.10;48.33;;;;;;;11.05;50.57;98699.09;2180001;80;21623;-79
2021/03/04 11:30:11;;;;;;;83.83;52.87;;;;;;;11.03;50.46;98694.72;2178675;81;21203;-81
2021/03/04 11:33:13;;;;;;;77.33;51.13;;;;;;;11.03;49.85;98698.20;2178588;81;21265;-79
2021/03/04 11:36:14;;;;;;;75.67;53.07;;;;;;;11.03;51.52;98695.59;2179008;81;21254;-79
2021/03/04 11:39:15;;;;;;;68.87;48.00;;;;;;;10.91;50.63;98692.02;2178842;81;21256;-79
2021/03/04 11:42:16;;;;;;;81.37;50.17;;;;;;;10.71;50.66;98678.80;2179401;81;21131;-79
2021/03/04 11:45:17;;;;;;;82.67;53.00;;;;;;;10.75;51.89;98677.52;2178822;81;21290;-77
2021/03/04 11:48:18;;;;;;;70.00;44.57;;;;;;;10.84;51.88;98675.42;2177931;81;21254;-77
2021/03/04 11:51:19;;;;;;;76.07;48.60;;;;;;;11.01;51.10;98667.72;2177963;81;21298;-78
2021/03/04 11:54:20;;;;;;;65.00;42.23;;;;;;;10.92;51.05;98663.30;2179620;82;21274;-81
2021/03/04 11:57:22;;;;;;;69.63;43.53;;;;;;;10.76;49.89;98666.22;2179657;81;21140;-80
2021/03/04 12:00:23;;;;;;;64.40;44.20;;;;;;;10.60;50.65;98664.77;2094624;84;21154;-78
2021/03/04 12:03:24;;;;;;;68.63;46.20;;;;;;;10.52;50.28;98660.36;2188804;81;21280;-78
2021/03/04 12:06:26;;;;;;;76.23;48.13;;;;;;;10.48;50.27;98658.58;2092048;84;21309;-78
2021/03/04 12:09:27;;;;;;;70.37;43.50;;;;;;;10.59;50.72;98644.75;2189201;81;21297;-79
2021/03/04 12:12:28;;;;;;;69.03;44.47;;;;;;;10.55;50.18;98649.50;2091485;84;21162;-79
2021/03/04 12:15:29;;;;;;;74.53;45.00;;;;;;;10.42;50.31;98640.69;2186290;81;21258;-80
2021/03/04 12:18:30;;;;;;;76.70;47.20;;;;;;;10.53;50.00;98639.05;2185336;81;21115;-78
2021/03/04 12:21:31;;;;;;;73.00;44.03;;;;;;;10.92;50.79;98628.47;2085909;84;21270;-79
2021/03/04 12:24:32;;;;;;;64.50;44.17;;;;;;;11.05;48.22;98631.18;2176475;81;21123;-78
2021/03/04 12:27:33;;;;;;;65.37;42.83;;;;;;;11.01;49.15;98629.41;2177693;81;21330;-77
2021/03/04 12:30:34;;;;;;;65.32;43.98;;;;;;;11.03;49.64;98621.58;2178699;81;21293;-78
2021/03/04 12:33:35;;;;;;;60.28;42.05;;;;;;;11.09;48.80;98622.50;2086821;84;21274;-80
2021/03/04 12:36:36;;;;;;;62.25;41.37;;;;;;;11.10;49.15;98614.23;2111304;84;21136;-79
2021/03/04 12:39:37;;;;;;;58.75;40.05;;;;;;;10.99;48.83;98619.81;2085986;84;21297;-79
2021/03/04 12:42:38;;;;;;;66.77;42.78;;;;;;;10.99;48.96;98609.37;2121649;83;21151;-78
2021/03/04 12:45:39;;;;;;;64.13;41.53;;;;;;;10.96;48.38;98600.20;2111811;84;21278;-78
2021/03/04 12:48:42;;;;;;;65.90;42.10;;;;;;;11.02;48.20;98595.02;2086411;85;21602;-79
2021/03/04 12:51:43;;;;;;;63.17;40.33;;;;;;;11.07;48.45;98592.01;2052846;82;21330;-78
2021/03/04 12:54:44;;;;;;;68.05;42.95;;;;;;;11.11;46.88;98593.34;2025147;88;21143;-76
2021/03/04 12:57:45;;;;;;;60.57;41.83;;;;;;;10.92;47.72;98597.14;2026051;88;21901;-78
2021/03/04 13:00:46;;;;;;;59.60;40.83;;;;;;;10.67;48.21;98594.79;2026677;87;21162;-79
2021/03/04 13:03:47;;;;;;;54.80;37.00;;;;;;;10.60;48.90;98583.43;2025865;87;21171;-78
2021/03/04 13:06:48;;;;;;;58.60;39.77;;;;;;;10.78;48.98;98580.08;2024721;87;21289;-79
2021/03/04 13:09:49;;;;;;;65.43;40.83;;;;;;;10.86;48.80;98583.61;2048596;87;21338;-78
2021/03/04 13:12:51;;;;;;;51.33;35.17;;;;;;;10.79;47.68;98580.09;2017373;88;21162;-78
2021/03/04 13:15:52;;;;;;;64.67;39.43;;;;;;;10.97;48.19;98582.38;2017812;88;21262;-79
2021/03/04 13:18:53;;;;;;;62.40;40.03;;;;;;;11.26;47.64;98575.56;2017714;88;21162;-77
2021/03/04 13:21:55;;;;;;;93.90;53.10;;;;;;;11.37;46.09;98569.11;2017991;88;21341;-78
2021/03/04 13:24:56;;;;;;;65.10;40.45;;;;;;;11.31;47.46;98572.57;2019752;88;21265;-79
2021/03/04 13:27:57;;;;;;;60.15;38.38;;;;;;;11.23;46.60;98565.09;2018794;88;21990;-79
2021/03/04 13:30:59;;;;;;;58.38;36.68;;;;;;;11.33;46.17;98564.73;2019437;88;21214;-80
2021/03/04 13:34:01;;;;;;;59.80;43.57;;;;;;;11.52;46.72;98568.30;2018586;88;21320;-79
2021/03/04 13:37:02;;;;;;;73.42;45.43;;;;;;;11.58;47.97;98565.70;2017460;88;21306;-79
2021/03/04 13:40:03;;;;;;;64.15;44.15;;;;;;;11.54;48.29;98567.87;2017822;88;21305;-78
2021/03/04 13:43:04;;;;;;;67.78;45.30;;;;;;;11.51;48.17;98562.20;2017740;88;21730;-79
2021/03/04 13:46:05;;;;;;;60.10;40.28;;;;;;;11.42;48.04;98561.73;2018912;88;21289;-79
2021/03/04 13:49:06;;;;;;;60.95;41.25;;;;;;;11.43;48.43;98562.60;2018431;88;21395;-80
2021/03/04 13:52:10;;;;;;;65.08;43.42;;;;;;;11.45;47.42;98564.36;2018814;88;21938;-80
2021/03/04 13:55:11;;;;;;;63.63;44.20;;;;;;;11.39;48.29;98556.49;2019263;88;21266;-77
2021/03/04 13:58:12;;;;;;;116.12;49.23;;;;;;;11.31;48.40;98559.94;2018774;88;21356;-78